Time;durP1;ratioP1;P1;durP2;ratioP2;P2;SDS_P1;SDS_P2;PMS_P1;PMS_P2;Temp;Humidity;BMP_temperature;BMP_pressure;BME280_temperature;BME280_humidity;BME280_pressure;Samples;Min_cycle;Max_cycle;Signal;HPM_P1;HPM_P2
2024/01/03 00:02:24;;;;;;;3.00;1.77;;;7.60;99.90;;;;;;5031275;28;20500;-53
2024/01/03 00:04:50;;;;;;;3.00;1.83;;;7.70;99.90;;;;;;5029633;28;20490;-54
2024/01/03 00:07:17;;;;;;;3.80;1.73;;;7.70;99.90;;;;;;5029263;28;20493;-54
2024/01/03 00:09:45;;;;;;;1.67;1.30;;;7.70;99.90;;;;;;5034571;28;20866;-54
2024/01/03 00:12:18;;;;;;;1.60;1.50;;;7.70;99.90;;;;;;5029589;28;20475;-53
2024/01/03 00:14:45;;;;;;;4.13;1.63;;;7.70;99.90;;;;;;5033607;28;20494;-53
2024/01/03 00:17:11;;;;;;;1.43;1.30;;;7.70;99.90;;;;;;5034344;28;20451;-54
2024/01/03 00:19:39;;;;;;;2.30;1.80;;;7.80;99.90;;;;;;5035177;28;20478;-54
2024/01/03 00:22:10;;;;;;;1.37;1.30;;;7.80;99.90;;;;;;5034967;28;20462;-54
2024/01/03 00:24:45;;;;;;;1.00;1.00;;;7.80;99.90;;;;;;5035518;28;20447;-54
2024/01/03 00:27:12;;;;;;;1.37;1.00;;;7.80;99.90;;;;;;5032104;28;20451;-54
2024/01/03 00:29:56;;;;;;;1.07;1.07;;;7.80;99.90;;;;;;5031553;28;20948;-55
2024/01/03 00:32:24;;;;;;;1.10;1.10;;;7.80;99.90;;;;;;5033406;28;20446;-53
2024/01/03 00:34:53;;;;;;;1.40;1.30;;;7.80;99.90;;;;;;5033593;28;20525;-53
2024/01/03 00:37:26;;;;;;;1.93;1.57;;;7.80;99.90;;;;;;5034811;28;20442;-54
2024/01/03 00:39:55;;;;;;;1.20;1.10;;;7.80;99.90;;;;;;5034659;28;20494;-54
2024/01/03 00:42:21;;;;;;;1.20;1.10;;;7.90;99.90;;;;;;5031602;28;20443;-54
2024/01/03 00:44:48;;;;;;;1.67;1.07;;;7.90;99.90;;;;;;5031564;28;20553;-54
2024/01/03 00:47:15;;;;;;;1.13;1.03;;;7.90;99.90;;;;;;5030084;28;20512;-53
2024/01/03 00:49:42;;;;;;;1.10;1.03;;;7.90;99.90;;;;;;5030768;28;20486;-53
2024/01/03 00:52:10;;;;;;;0.93;0.83;;;8.00;99.90;;;;;;5033770;28;20553;-54
2024/01/03 00:54:38;;;;;;;0.87;0.87;;;8.00;99.90;;;;;;5034651;28;20844;-54
2024/01/03 00:57:05;;;;;;;1.27;1.10;;;8.00;99.90;;;;;;5034540;28;20442;-54
2024/01/03 00:59:34;;;;;;;1.43;1.20;;;8.00;99.90;;;;;;5033692;28;21063;-54
2024/01/03 01:02:02;;;;;;;2.80;0.90;;;8.00;99.90;;;;;;5034603;28;20470;-54
2024/01/03 01:04:31;;;;;;;0.80;0.80;;;8.00;99.90;;;;;;5030810;28;20967;-54
2024/01/03 01:06:57;;;;;;;1.33;1.00;;;8.00;99.90;;;;;;5030170;28;20462;-53
2024/01/03 01:09:25;;;;;;;0.80;0.80;;;8.00;99.90;;;;;;5032947;28;20509;-54
2024/01/03 01:11:52;;;;;;;3.17;1.90;;;8.00;99.90;;;;;;5028256;28;20483;-54
2024/01/03 01:14:19;;;;;;;1.27;1.10;;;8.00;99.90;;;;;;5034269;28;20454;-54
2024/01/03 01:16:45;;;;;;;1.00;0.90;;;8.00;99.90;;;;;;5031726;28;20504;-53
2024/01/03 01:19:12;;;;;;;1.17;0.90;;;8.00;99.90;;;;;;5033670;28;20435;-54
2024/01/03 01:21:41;;;;;;;0.70;0.70;;;8.00;99.90;;;;;;5033311;28;20475;-54
2024/01/03 01:24:08;;;;;;;0.80;0.70;;;8.00;99.90;;;;;;5031274;28;20455;-53
2024/01/03 01:26:36;;;;;;;0.93;0.93;;;8.00;99.90;;;;;;5033414;28;20443;-53
2024/01/03 01:29:02;;;;;;;0.70;0.70;;;8.00;99.90;;;;;;5032583;28;20493;-54
2024/01/03 01:31:29;;;;;;;0.70;0.70;;;8.00;99.90;;;;;;5033716;28;20544;-53
2024/01/03 01:33:55;;;;;;;0.77;0.77;;;7.90;99.90;;;;;;5033647;28;20443;-54
2024/01/03 01:36:22;;;;;;;0.80;0.80;;;7.90;99.90;;;;;;5033587;28;20443;-53
2024/01/03 01:38:49;;;;;;;1.20;0.70;;;7.90;99.90;;;;;;5031717;28;20455;-53
2024/01/03 01:41:15;;;;;;;0.80;0.80;;;7.90;99.90;;;;;;5030049;28;20528;-54
2024/01/03 01:43:43;;;;;;;1.10;0.97;;;7.90;99.90;;;;;;5033887;28;20482;-54
2024/01/03 01:46:11;;;;;;;0.60;0.60;;;8.00;99.90;;;;;;5032196;28;20470;-54
2024/01/03 01:48:38;;;;;;;0.90;0.80;;;8.00;99.90;;;;;;5033099;28;20501;-53
2024/01/03 01:51:05;;;;;;;1.87;0.80;;;8.00;99.90;;;;;;5033537;28;20487;-54
2024/01/03 01:53:32;;;;;;;0.70;0.60;;;8.00;99.90;;;;;;5033663;28;20937;-53
2024/01/03 01:55:59;;;;;;;3.53;1.00;;;8.00;99.90;;;;;;5031205;28;20439;-52
2024/01/03 01:58:26;;;;;;;1.90;0.70;;;8.00;99.90;;;;;;5025689;28;20490;-53
2024/01/03 02:00:54;;;;;;;0.90;0.80;;;8.00;99.90;;;;;;5032945;28;20463;-53
2024/01/03 02:03:21;;;;;;;1.67;0.70;;;8.00;99.90;;;;;;5031720;28;20443;-54
2024/01/03 02:05:48;;;;;;;1.03;0.93;;;8.00;99.90;;;;;;5029995;28;20491;-54
2024/01/03 02:08:14;;;;;;;0.63;0.63;;;8.00;99.90;;;;;;5032126;28;20447;-53
2024/01/03 02:10:41;;;;;;;0.70;0.70;;;8.00;99.90;;;;;;5033122;28;20490;-53
2024/01/03 02:13:07;;;;;;;0.60;0.60;;;8.00;99.90;;;;;;5033143;28;20471;-54
2024/01/03 02:15:34;;;;;;;7.63;0.80;;;8.10;99.90;;;;;;5029060;28;20544;-54
2024/01/03 02:18:03;;;;;;;0.70;0.50;;;8.00;99.90;;;;;;5024766;28;20546;-53
2024/01/03 02:20:33;;;;;;;1.00;0.70;;;8.00;99.90;;;;;;5031785;28;20969;-54
2024/01/03 02:23:01;;;;;;;1.23;0.60;;;8.00;99.90;;;;;;5032479;28;20453;-53
2024/01/03 02:25:27;;;;;;;0.60;0.60;;;8.00;99.90;;;;;;5034048;28;20459;-54
2024/01/03 02:27:54;;;;;;;0.73;0.60;;;8.00;99.90;;;;;;5027514;28;20498;-54
2024/01/03 02:30:20;;;;;;;0.80;0.60;;;7.90;99.90;;;;;;5026483;28;20510;-54
2024/01/03 02:32:47;;;;;;;0.93;0.60;;;7.90;99.90;;;;;;5028198;28;20512;-53
2024/01/03 02:35:14;;;;;;;0.60;0.57;;;7.90;99.90;;;;;;5033001;28;20493;-53
2024/01/03 02:37:40;;;;;;;0.60;0.50;;;7.90;99.90;;;;;;5027367;28;20438;-53
2024/01/03 02:40:09;;;;;;;1.70;0.70;;;7.90;99.90;;;;;;5031840;28;20458;-54
2024/01/03 02:42:36;;;;;;;1.17;0.80;;;7.90;99.90;;;;;;5031103;28;20462;-53
2024/01/03 02:45:02;;;;;;;5.23;1.00;;;8.00;99.90;;;;;;5024345;28;20548;-53
2024/01/03 02:47:29;;;;;;;2.00;0.60;;;8.00;99.90;;;;;;5031200;28;20870;-53
2024/01/03 02:49:58;;;;;;;0.70;0.50;;;8.00;99.90;;;;;;5025363;28;21046;-53
2024/01/03 02:52:25;;;;;;;1.23;0.60;;;8.00;99.90;;;;;;5024676;28;21028;-53
2024/01/03 02:54:51;;;;;;;0.60;0.57;;;8.00;99.90;;;;;;5030852;28;20450;-54
2024/01/03 02:57:19;;;;;;;1.03;0.67;;;8.00;99.90;;;;;;5028126;28;20513;-53
2024/01/03 02:59:46;;;;;;;0.60;0.57;;;8.10;99.90;;;;;;5032194;28;20447;-53
2024/01/03 03:02:12;;;;;;;0.70;0.60;;;8.10;99.90;;;;;;5030401;28;20474;-53
2024/01/03 03:04:39;;;;;;;0.60;0.60;;;8.20;99.90;;;;;;5034486;28;20442;-53
2024/01/03 03:07:05;;;;;;;2.33;0.83;;;8.10;99.90;;;;;;5030494;28;20872;-54
2024/01/03 03:09:32;;;;;;;0.80;0.50;;;8.10;99.90;;;;;;5024636;28;20528;-53
2024/01/03 03:11:59;;;;;;;1.53;0.60;;;8.10;99.90;;;;;;5027250;28;20486;-57
2024/01/03 03:14:26;;;;;;;0.50;0.40;;;8.10;99.90;;;;;;5027564;28;20462;-53
2024/01/03 03:16:52;;;;;;;0.70;0.60;;;8.10;99.90;;;;;;5031735;28;20451;-54
2024/01/03 03:19:19;;;;;;;0.60;0.40;;;8.20;99.90;;;;;;5029585;28;20573;-54
2024/01/03 03:21:45;;;;;;;2.23;0.60;;;8.20;99.90;;;;;;5031293;28;20627;-53
2024/01/03 03:24:12;;;;;;;0.60;0.60;;;8.30;99.90;;;;;;5033158;28;20451;-54
2024/01/03 03:26:38;;;;;;;1.67;0.70;;;8.30;99.90;;;;;;5040537;28;20489;-54
2024/01/03 03:29:05;;;;;;;1.03;0.90;;;8.30;99.90;;;;;;5038192;28;20451;-54
2024/01/03 03:31:33;;;;;;;0.70;0.50;;;8.30;99.90;;;;;;5047317;28;20512;-53
2024/01/03 03:34:00;;;;;;;3.90;0.80;;;8.40;99.90;;;;;;5039963;28;20516;-54
2024/01/03 03:36:26;;;;;;;2.17;0.80;;;8.30;99.90;;;;;;5038703;28;20795;-54
2024/01/03 03:38:54;;;;;;;0.70;0.70;;;8.30;99.90;;;;;;5030883;28;20491;-54
2024/01/03 03:41:22;;;;;;;2.60;0.73;;;8.40;99.90;;;;;;5031722;28;20467;-54
2024/01/03 03:43:49;;;;;;;1.10;0.60;;;8.40;99.90;;;;;;5031828;28;21158;-54
2024/01/03 03:46:17;;;;;;;0.70;0.60;;;8.40;99.90;;;;;;5031720;28;20439;-54
2024/01/03 03:48:45;;;;;;;1.67;0.60;;;8.40;99.90;;;;;;5025402;28;20535;-53
2024/01/03 03:51:12;;;;;;;1.70;0.87;;;8.40;99.90;;;;;;5030867;28;20564;-54
2024/01/03 03:53:38;;;;;;;5.67;0.70;;;8.30;99.90;;;;;;5031401;28;20463;-54
2024/01/03 03:56:05;;;;;;;4.53;0.67;;;8.30;99.90;;;;;;5031464;28;20501;-54
2024/01/03 03:58:32;;;;;;;0.90;0.60;;;8.30;99.90;;;;;;5029784;28;21583;-53
2024/01/03 04:00:59;;;;;;;0.60;0.50;;;8.30;99.90;;;;;;5033510;28;20496;-53
2024/01/03 04:03:25;;;;;;;1.40;0.80;;;8.30;99.90;;;;;;5031067;28;20442;-54
2024/01/03 04:05:53;;;;;;;4.20;0.93;;;8.30;99.90;;;;;;5027344;28;20463;-54
2024/01/03 04:08:20;;;;;;;2.87;0.90;;;8.20;99.90;;;;;;5029302;28;20443;-53
2024/01/03 04:10:46;;;;;;;5.17;0.73;;;8.30;99.90;;;;;;5029764;28;20835;-52
2024/01/03 04:13:13;;;;;;;0.70;0.70;;;8.30;99.90;;;;;;5030858;28;20860;-53
2024/01/03 04:15:39;;;;;;;4.93;0.97;;;8.30;1.40;;;;;;5029604;28;20520;-53
2024/01/03 04:18:06;;;;;;;0.90;0.70;;;8.20;99.90;;;;;;5031576;28;20435;-53
2024/01/03 04:20:33;;;;;;;1.10;0.60;;;8.20;99.90;;;;;;5028650;28;20851;-54
2024/01/03 04:23:00;;;;;;;0.97;0.87;;;8.20;99.90;;;;;;5029141;28;20881;-54
2024/01/03 04:25:27;;;;;;;0.60;0.60;;;8.20;99.90;;;;;;5039410;28;20467;-54
2024/01/03 04:27:54;;;;;;;1.70;0.63;;;8.20;99.90;;;;;;5040344;28;20518;-54
2024/01/03 04:30:20;;;;;;;1.97;0.90;;;8.20;99.90;;;;;;5043555;28;20526;-55
2024/01/03 04:32:47;;;;;;;1.27;0.70;;;8.10;99.90;;;;;;5044258;28;20483;-54
2024/01/03 04:35:14;;;;;;;2.40;1.07;;;8.20;99.90;;;;;;5034032;28;20518;-54
2024/01/03 04:37:40;;;;;;;1.77;0.70;;;8.20;99.90;;;;;;5029067;28;20467;-53
2024/01/03 04:40:10;;;;;;;0.70;0.60;;;8.20;99.90;;;;;;5021527;28;20456;-53
2024/01/03 04:42:37;;;;;;;3.03;0.70;;;8.20;99.90;;;;;;5021877;28;20506;-54
2024/01/03 04:45:05;;;;;;;4.63;0.83;;;8.20;99.90;;;;;;5027351;28;20513;-53
2024/01/03 04:47:32;;;;;;;1.53;0.60;;;8.20;99.90;;;;;;5025811;28;20645;-54
2024/01/03 04:49:58;;;;;;;2.00;0.83;;;8.10;99.90;;;;;;5025423;28;20490;-54
2024/01/03 04:52:25;;;;;;;0.93;0.83;;;8.20;99.90;;;;;;5033600;28;20483;-53
2024/01/03 04:54:52;;;;;;;0.90;0.70;;;8.20;99.90;;;;;;5031266;28;21015;-53
2024/01/03 04:57:20;;;;;;;1.00;0.60;;;8.20;99.90;;;;;;5031556;28;20548;-53
2024/01/03 04:59:46;;;;;;;2.40;0.90;;;8.20;99.90;;;;;;5029735;28;20454;-54
2024/01/03 05:02:13;;;;;;;1.53;1.00;;;8.30;99.90;;;;;;5029682;28;20482;-53
2024/01/03 05:04:39;;;;;;;1.87;0.90;;;8.40;99.90;;;;;;5032347;28;20552;-53
2024/01/03 05:07:06;;;;;;;2.23;1.33;;;8.40;99.90;;;;;;5025733;28;20489;-54
2024/01/03 05:09:34;;;;;;;2.77;1.00;;;8.40;22.80;;;;;;5034337;28;20446;-53
2024/01/03 05:12:02;;;;;;;7.33;1.57;;;8.40;33.10;;;;;;5031505;28;20509;-55
2024/01/03 05:14:30;;;;;;;1.80;1.50;;;8.40;29.10;;;;;;5030520;28;20439;-59
2024/01/03 05:16:57;;;;;;;6.40;1.50;;;8.40;43.20;;;;;;5034304;28;20451;-57
2024/01/03 05:19:23;;;;;;;1.53;1.00;;;8.50;47.40;;;;;;5030351;28;20968;-58
2024/01/03 05:21:50;;;;;;;3.73;1.40;;;8.50;52.80;;;;;;5027918;28;20885;-57
2024/01/03 05:24:17;;;;;;;8.53;1.73;;;8.50;55.10;;;;;;5027685;28;20526;-57
2024/01/03 05:26:43;;;;;;;6.13;1.43;;;8.40;55.00;;;;;;5031508;28;20509;-58
2024/01/03 05:29:10;;;;;;;1.87;1.10;;;8.50;67.60;;;;;;5031978;28;20465;-57
2024/01/03 05:31:38;;;;;;;4.47;1.50;;;8.50;69.00;;;;;;5028230;28;20487;-58
2024/01/03 05:34:05;;;;;;;7.20;1.40;;;8.50;68.10;;;;;;5033367;28;20483;-57
2024/01/03 05:36:31;;;;;;;4.90;2.00;;;8.60;77.40;;;;;;5029826;28;20459;-56
2024/01/03 05:38:58;;;;;;;4.97;1.57;;;8.70;87.70;;;;;;5028810;28;20469;-57
2024/01/03 05:41:24;;;;;;;4.13;1.37;;;8.70;93.20;;;;;;5026555;28;20533;-58
2024/01/03 05:43:51;;;;;;;4.20;1.67;;;8.70;93.40;;;;;;5033907;28;20489;-57
2024/01/03 05:46:17;;;;;;;4.20;1.23;;;8.80;92.40;;;;;;5033772;28;20443;-57
2024/01/03 05:48:45;;;;;;;2.77;1.03;;;8.70;90.80;;;;;;5030378;28;27026;-57
2024/01/03 05:51:12;;;;;;;2.70;0.93;;;8.80;97.60;;;;;;5032561;28;20466;-57
2024/01/03 05:53:39;;;;;;;2.30;1.30;;;8.80;97.90;;;;;;5032263;28;20447;-57
2024/01/03 05:56:06;;;;;;;5.53;1.20;;;8.90;99.90;;;;;;5032874;28;20454;-54
2024/01/03 05:58:32;;;;;;;6.23;1.77;;;8.90;99.90;;;;;;5029111;28;20517;-53
2024/01/03 06:00:59;;;;;;;4.10;0.77;;;8.90;99.90;;;;;;5029082;28;20463;-53
2024/01/03 06:03:25;;;;;;;2.30;0.80;;;8.90;99.90;;;;;;5032330;28;20443;-54
2024/01/03 06:05:54;;;;;;;6.63;1.40;;;8.90;99.90;;;;;;5033454;28;20443;-54
2024/01/03 06:08:21;;;;;;;4.70;1.73;;;8.90;99.90;;;;;;5028952;28;20483;-53
2024/01/03 06:10:47;;;;;;;2.43;1.03;;;8.80;99.90;;;;;;5030946;28;20532;-53
2024/01/03 06:13:15;;;;;;;1.67;1.10;;;8.80;99.90;;;;;;5026667;28;20532;-52
2024/01/03 06:15:42;;;;;;;4.43;1.20;;;8.80;99.90;;;;;;5030590;28;20500;-53
2024/01/03 06:18:09;;;;;;;4.23;1.47;;;8.80;99.90;;;;;;5032748;28;20443;-54
2024/01/03 06:20:35;;;;;;;3.37;1.23;;;8.80;99.90;;;;;;5032885;28;20485;-54
2024/01/03 06:23:03;;;;;;;4.30;0.97;;;8.80;99.90;;;;;;5033028;28;21121;-54
2024/01/03 06:25:31;;;;;;;2.93;0.83;;;8.80;99.90;;;;;;5033085;28;20493;-54
2024/01/03 06:27:57;;;;;;;1.57;0.90;;;8.80;99.90;;;;;;5022826;28;20937;-52
2024/01/03 06:30:24;;;;;;;4.87;1.13;;;8.90;99.90;;;;;;5031172;28;21034;-53
2024/01/03 06:32:51;;;;;;;2.17;0.80;;;8.90;99.90;;;;;;5028393;28;20506;-53
2024/01/03 06:35:18;;;;;;;1.87;0.80;;;8.90;99.90;;;;;;5032452;28;20936;-52
2024/01/03 06:37:44;;;;;;;2.07;0.90;;;8.90;99.90;;;;;;5029791;28;20556;-54
2024/01/03 06:40:12;;;;;;;6.23;0.93;;;8.90;99.90;;;;;;5032877;28;20485;-53
2024/01/03 06:42:39;;;;;;;1.00;0.90;;;8.90;99.90;;;;;;5030132;28;20454;-55
2024/01/03 06:45:06;;;;;;;1.00;0.67;;;8.90;99.90;;;;;;5028256;28;21050;-53
2024/01/03 06:47:33;;;;;;;3.00;0.93;;;8.90;99.90;;;;;;5029532;28;20446;-53
2024/01/03 06:49:59;;;;;;;2.80;0.73;;;8.90;99.90;;;;;;5022940;28;20455;-54
2024/01/03 06:52:26;;;;;;;4.57;1.07;;;8.80;99.90;;;;;;5029050;28;20483;-54
2024/01/03 06:54:54;;;;;;;2.23;0.80;;;8.70;95.00;;;;;;5030706;28;20447;-53
2024/01/03 06:57:22;;;;;;;1.77;0.77;;;8.70;87.70;;;;;;5024074;28;20462;-52
2024/01/03 06:59:48;;;;;;;2.97;1.03;;;8.70;96.80;;;;;;5028959;28;20451;-53
2024/01/03 07:02:15;;;;;;;2.90;1.00;;;8.70;97.40;;;;;;5025865;28;20510;-54
2024/01/03 07:04:41;;;;;;;1.87;1.13;;;8.70;94.40;;;;;;5019321;28;20461;-54
2024/01/03 07:07:08;;;;;;;3.67;1.37;;;8.70;88.80;;;;;;5019796;28;20506;-53
2024/01/03 07:09:34;;;;;;;1.67;1.07;;;8.70;80.60;;;;;;5029515;28;20956;-53
2024/01/03 07:12:01;;;;;;;2.83;1.13;;;8.60;66.80;;;;;;5022787;28;20513;-53
2024/01/03 07:14:29;;;;;;;2.17;0.93;;;8.50;61.90;;;;;;5028425;28;21011;-53
2024/01/03 07:16:55;;;;;;;5.43;1.40;;;8.50;55.70;;;;;;5027017;28;20470;-54
2024/01/03 07:19:22;;;;;;;2.57;1.03;;;8.40;55.40;;;;;;5027467;28;20454;-53
2024/01/03 07:21:49;;;;;;;4.40;1.40;;;8.40;50.90;;;;;;5030245;28;20467;-54
2024/01/03 07:24:16;;;;;;;7.63;0.90;;;8.40;47.80;;;;;;5028927;28;20451;-52
2024/01/03 07:26:42;;;;;;;5.80;1.17;;;8.30;42.80;;;;;;5030311;28;20474;-54
2024/01/03 07:29:09;;;;;;;2.53;1.00;;;8.30;41.70;;;;;;5025536;28;20829;-54
2024/01/03 07:31:37;;;;;;;1.93;0.93;;;8.30;38.00;;;;;;5021835;28;21039;-53
2024/01/03 07:34:03;;;;;;;3.27;1.10;;;8.30;36.80;;;;;;5024498;28;20483;-53
2024/01/03 07:36:30;;;;;;;2.57;0.97;;;8.30;43.50;;;;;;5025577;28;21030;-52
2024/01/03 07:38:58;;;;;;;2.20;1.17;;;8.30;47.60;;;;;;5023509;28;20949;-53
2024/01/03 07:41:24;;;;;;;3.77;1.10;;;8.30;50.70;;;;;;5028650;28;20540;-54
2024/01/03 07:43:51;;;;;;;5.83;1.77;;;8.30;53.00;;;;;;5025960;28;20820;-54
2024/01/03 07:46:18;;;;;;;3.73;1.10;;;8.30;53.90;;;;;;5028045;28;20468;-53
2024/01/03 07:48:46;;;;;;;3.37;1.30;;;8.40;64.20;;;;;;5027662;28;20501;-54
2024/01/03 07:51:13;;;;;;;2.30;1.00;;;8.50;70.40;;;;;;5028088;28;20482;-54
2024/01/03 07:53:39;;;;;;;4.40;1.30;;;8.50;89.60;;;;;;5028340;28;20536;-53
2024/01/03 07:56:08;;;;;;;2.03;0.80;;;8.60;89.40;;;;;;5029675;28;20500;-53
2024/01/03 07:58:34;;;;;;;1.67;1.00;;;8.70;99.90;;;;;;5029389;28;20522;-53
2024/01/03 08:01:01;;;;;;;6.47;1.37;;;8.80;99.90;;;;;;5023267;28;20482;-53
2024/01/03 08:03:27;;;;;;;1.83;1.30;;;8.80;99.90;;;;;;5021636;28;20459;-53
2024/01/03 08:05:55;;;;;;;1.67;1.00;;;8.80;99.90;;;;;;5025702;28;20509;-53
2024/01/03 08:08:22;;;;;;;3.10;1.00;;;8.80;99.90;;;;;;5028532;28;20513;-53
2024/01/03 08:10:48;;;;;;;2.67;0.90;;;8.80;99.90;;;;;;5027475;28;20526;-54
2024/01/03 08:13:15;;;;;;;2.13;1.00;;;8.80;99.90;;;;;;5028167;28;20518;-53
2024/01/03 08:15:42;;;;;;;3.57;1.00;;;8.90;99.90;;;;;;5027419;28;20836;-52
2024/01/03 08:18:08;;;;;;;4.30;1.13;;;9.00;99.90;;;;;;5031368;28;20443;-53
2024/01/03 08:20:35;;;;;;;2.60;1.10;;;9.00;99.90;;;;;;5027207;28;20483;-54
2024/01/03 08:23:03;;;;;;;2.87;1.13;;;9.00;99.90;;;;;;5020949;28;20581;-54
2024/01/03 08:25:30;;;;;;;2.67;0.80;;;9.10;99.90;;;;;;5023494;28;21568;-54
2024/01/03 08:27:56;;;;;;;1.53;0.80;;;9.10;99.90;;;;;;5030044;28;20808;-53
2024/01/03 08:30:23;;;;;;;5.87;1.20;;;9.20;99.90;;;;;;5026340;28;20490;-53
2024/01/03 08:32:50;;;;;;;1.63;0.97;;;9.20;99.90;;;;;;5031116;28;20487;-53
2024/01/03 08:35:16;;;;;;;1.90;1.03;;;9.30;99.90;;;;;;5029763;28;20959;-54
2024/01/03 08:37:43;;;;;;;1.97;1.20;;;9.30;99.90;;;;;;5026458;28;20508;-53
2024/01/03 08:40:12;;;;;;;3.30;1.30;;;9.30;99.90;;;;;;5029621;28;20454;-53
2024/01/03 08:42:38;;;;;;;3.60;1.10;;;9.30;99.90;;;;;;5030777;28;20513;-53
2024/01/03 08:45:05;;;;;;;3.60;0.83;;;9.40;99.90;;;;;;5031013;28;20458;-53
2024/01/03 08:47:32;;;;;;;2.23;0.97;;;9.40;99.90;;;;;;5027426;28;20462;-53
2024/01/03 08:49:59;;;;;;;1.77;1.13;;;9.40;99.90;;;;;;5032293;28;20450;-54
2024/01/03 08:52:25;;;;;;;10.63;1.40;;;9.40;99.90;;;;;;5020085;28;20612;-53
2024/01/03 08:54:52;;;;;;;4.13;1.60;;;9.40;99.90;;;;;;5026463;28;20490;-52
2024/01/03 08:57:20;;;;;;;3.10;1.20;;;9.30;99.90;;;;;;5029650;28;21013;-54
2024/01/03 08:59:46;;;;;;;3.13;1.50;;;9.30;99.90;;;;;;5025548;28;20458;-53
2024/01/03 09:02:13;;;;;;;3.70;1.20;;;9.30;99.90;;;;;;5032611;28;20568;-53
2024/01/03 09:04:41;;;;;;;4.40;1.50;;;9.40;99.90;;;;;;5034811;28;20462;-53
2024/01/03 09:07:08;;;;;;;2.10;1.23;;;9.40;99.90;;;;;;5031396;28;20545;-54
2024/01/03 09:09:34;;;;;;;3.50;2.03;;;9.40;99.90;;;;;;5025330;28;20462;-53
2024/01/03 09:12:01;;;;;;;23.30;8.00;;;9.40;99.90;;;;;;5020458;28;20498;-53
2024/01/03 09:14:29;;;;;;;5.03;2.47;;;9.30;99.90;;;;;;5029155;28;20486;-53
2024/01/03 09:16:55;;;;;;;11.30;4.50;;;9.40;99.90;;;;;;5028843;28;20552;-53
2024/01/03 09:19:22;;;;;;;9.23;3.70;;;9.40;99.90;;;;;;5025368;28;20467;-54
2024/01/03 09:21:48;;;;;;;5.10;2.30;;;9.40;99.90;;;;;;5030073;28;20855;-54
2024/01/03 09:24:16;;;;;;;9.90;4.27;;;9.40;99.90;;;;;;5029155;28;20455;-53
2024/01/03 09:26:42;;;;;;;8.73;3.90;;;9.50;99.90;;;;;;5025835;28;20447;-53
2024/01/03 09:29:09;;;;;;;5.33;3.47;;;9.50;99.90;;;;;;5021980;28;20495;-54
2024/01/03 09:31:43;;;;;;;3.03;2.00;;;9.50;99.90;;;;;;5028091;28;20533;-53
2024/01/03 09:34:09;;;;;;;5.53;2.67;;;9.40;99.90;;;;;;5026422;28;20900;-53
2024/01/03 09:36:36;;;;;;;3.03;1.80;;;9.50;99.90;;;;;;5025954;28;20888;-54
2024/01/03 09:39:03;;;;;;;6.00;3.40;;;9.50;99.90;;;;;;5021604;28;20526;-53
2024/01/03 09:41:31;;;;;;;3.70;2.10;;;9.50;99.90;;;;;;5028684;28;20483;-53
2024/01/03 09:43:58;;;;;;;7.90;2.27;;;9.60;99.90;;;;;;5031021;28;20516;-53
2024/01/03 09:46:25;;;;;;;4.50;2.03;;;9.70;99.90;;;;;;5031095;28;20462;-53
2024/01/03 09:48:53;;;;;;;4.30;2.60;;;9.70;99.90;;;;;;5029526;28;20459;-54
2024/01/03 09:51:21;;;;;;;1.73;1.40;;;9.80;99.90;;;;;;5028278;28;20516;-53
2024/01/03 09:53:50;;;;;;;3.77;1.30;;;9.80;99.90;;;;;;5031164;28;20895;-52
2024/01/03 09:56:17;;;;;;;5.90;1.63;;;10.10;99.90;;;;;;5030783;28;20513;-53
2024/01/03 09:58:46;;;;;;;2.47;1.07;;;10.00;99.90;;;;;;5028191;28;21071;-54
2024/01/03 10:01:12;;;;;;;3.33;1.60;;;10.20;99.90;;;;;;5031203;28;20501;-53
2024/01/03 10:03:39;;;;;;;2.90;1.77;;;10.20;99.90;;;;;;5033135;28;20435;-53
2024/01/03 10:06:09;;;;;;;1.47;1.10;;;10.30;99.90;;;;;;5032367;28;20513;-53
2024/01/03 10:08:36;;;;;;;3.47;1.53;;;10.30;78.10;;;;;;5030610;28;20442;-53
2024/01/03 10:11:17;;;;;;;3.50;1.30;;;10.40;99.90;;;;;;5026691;28;20497;-53
2024/01/03 10:13:44;;;;;;;3.60;1.70;;;10.40;21.70;;;;;;5028387;28;21050;-52
2024/01/03 10:16:11;;;;;;;2.40;1.37;;;10.40;77.50;;;;;;5033056;28;20521;-53
2024/01/03 10:18:38;;;;;;;3.70;1.50;;;10.40;99.90;;;;;;5034856;28;20498;-53
2024/01/03 10:21:15;;;;;;;5.00;1.40;;;10.40;99.90;;;;;;5036005;28;20509;-53
2024/01/03 10:23:43;;;;;;;7.30;1.37;;;10.40;20.10;;;;;;5036952;28;20486;-54
2024/01/03 10:26:10;;;;;;;4.37;1.27;;;10.40;20.70;;;;;;5022458;28;20490;-53
2024/01/03 10:28:38;;;;;;;5.47;1.30;;;10.40;75.00;;;;;;5030200;28;20459;-53
2024/01/03 10:31:07;;;;;;;6.20;2.67;;;10.40;21.80;;;;;;5047178;28;20482;-53
2024/01/03 10:33:33;;;;;;;3.03;1.57;;;10.40;27.60;;;;;;5047191;28;20507;-53
2024/01/03 10:36:10;;;;;;;6.43;2.17;;;10.50;23.70;;;;;;5041724;28;20659;-58
2024/01/03 10:38:38;;;;;;;3.23;1.60;;;10.50;24.80;;;;;;5043229;28;20608;-58
2024/01/03 10:41:06;;;;;;;4.00;1.50;;;10.60;25.70;;;;;;5046596;28;20478;-59
2024/01/03 10:43:33;;;;;;;2.10;1.20;;;10.60;31.30;;;;;;5045002;28;20886;-58
2024/01/03 10:45:59;;;;;;;4.27;1.60;;;10.60;40.30;;;;;;5027986;28;20459;-58
2024/01/03 10:48:27;;;;;;;3.57;1.10;;;10.70;41.20;;;;;;5024503;28;20447;-58
2024/01/03 10:50:56;;;;;;;4.23;0.93;;;10.70;41.20;;;;;;5025693;28;20482;-58
2024/01/03 10:53:27;;;;;;;3.33;1.20;;;10.70;47.30;;;;;;5029499;28;20487;-59
2024/01/03 10:55:56;;;;;;;2.70;1.07;;;10.70;49.10;;;;;;5020871;28;20541;-58
2024/01/03 10:58:25;;;;;;;4.10;1.70;;;10.80;43.30;;;;;;5026299;28;20515;-59
2024/01/03 11:00:58;;;;;;;4.63;1.70;;;10.70;32.20;;;;;;5025966;28;20461;-58
2024/01/03 11:03:32;;;;;;;7.90;1.20;;;10.70;47.50;;;;;;5030187;28;20443;-58
2024/01/03 11:06:09;;;;;;;2.23;1.10;;;10.70;50.10;;;;;;5018877;28;20498;-58
2024/01/03 11:08:42;;;;;;;2.20;1.30;;;10.70;53.70;;;;;;5023820;28;20463;-58
2024/01/03 11:11:11;;;;;;;4.50;1.10;;;10.70;53.00;;;;;;5020820;28;20490;-58
2024/01/03 11:13:39;;;;;;;1.20;1.10;;;10.80;54.90;;;;;;5018632;28;20483;-58
2024/01/03 11:16:09;;;;;;;2.40;1.40;;;10.90;60.40;;;;;;5014484;28;20568;-59
2024/01/03 11:18:55;;;;;;;5.87;2.00;;;10.90;63.60;;;;;;5013880;28;20865;-58
2024/01/03 11:21:44;;;;;;;7.00;2.30;;;11.00;62.40;;;;;;5014661;28;20517;-58
2024/01/03 11:24:50;;;;;;;8.10;2.53;;;11.10;65.40;;;;;;5016793;28;20833;-58
2024/01/03 11:27:25;;;;;;;6.40;1.80;;;11.20;67.10;;;;;;5014200;28;20804;-58
2024/01/03 11:29:53;;;;;;;3.90;1.27;;;11.20;67.50;;;;;;5015155;28;20454;-58
2024/01/03 11:32:31;;;;;;;2.17;1.10;;;11.10;57.80;;;;;;5018594;28;20906;-57
2024/01/03 11:34:58;;;;;;;2.40;1.30;;;11.10;59.30;;;;;;5023814;28;20482;-58
2024/01/03 11:37:33;;;;;;;2.87;1.20;;;11.00;54.80;;;;;;5017841;28;20532;-58
2024/01/03 11:39:59;;;;;;;3.97;1.40;;;11.00;43.40;;;;;;5019209;28;20955;-58
2024/01/03 11:42:30;;;;;;;2.03;1.03;;;10.90;49.10;;;;;;5025281;28;20470;-59
2024/01/03 11:45:01;;;;;;;1.90;1.53;;;10.80;47.10;;;;;;5013480;28;20447;-57
2024/01/03 11:47:28;;;;;;;2.57;1.30;;;10.80;36.50;;;;;;5018879;28;20608;-58
2024/01/03 11:49:55;;;;;;;7.20;1.73;;;10.80;31.10;;;;;;5015019;28;20464;-58
2024/01/03 11:52:22;;;;;;;2.93;1.00;;;10.70;29.50;;;;;;5013999;28;20576;-58
2024/01/03 11:54:50;;;;;;;4.07;1.50;;;10.70;31.20;;;;;;5023004;28;20518;-57
2024/01/03 11:57:20;;;;;;;2.73;1.23;;;10.60;34.80;;;;;;5014265;28;20463;-58
2024/01/03 11:59:48;;;;;;;5.90;1.20;;;10.70;39.70;;;;;;5014190;28;20526;-57
2024/01/03 12:02:15;;;;;;;7.40;1.50;;;10.80;44.60;;;;;;5013824;28;20907;-58
2024/01/03 12:04:41;;;;;;;4.00;1.03;;;10.70;41.30;;;;;;5014424;28;20534;-57
2024/01/03 12:07:08;;;;;;;1.50;0.90;;;10.80;38.40;;;;;;5021932;28;20965;-57
2024/01/03 12:09:35;;;;;;;2.50;1.10;;;10.80;46.20;;;;;;5032261;28;20565;-59
2024/01/03 12:12:02;;;;;;;4.43;1.23;;;10.90;49.80;;;;;;5032336;28;20496;-57
2024/01/03 12:14:30;;;;;;;5.77;1.27;;;10.90;48.30;;;;;;5032255;28;20489;-57
2024/01/03 12:16:58;;;;;;;2.00;1.17;;;10.90;53.00;;;;;;5029443;28;20478;-58
2024/01/03 12:19:26;;;;;;;3.70;1.33;;;10.90;47.80;;;;;;5015407;28;21090;-57
2024/01/03 12:21:56;;;;;;;1.77;1.07;;;10.90;45.00;;;;;;5015550;28;20482;-58
2024/01/03 12:24:37;;;;;;;1.97;1.27;;;10.90;45.60;;;;;;5016691;28;20467;-57
2024/01/03 12:27:04;;;;;;;5.57;1.87;;;10.90;47.00;;;;;;5014163;28;20969;-58
2024/01/03 12:29:30;;;;;;;1.67;1.30;;;10.80;41.20;;;;;;5014073;28;21711;-57
2024/01/03 12:32:09;;;;;;;4.57;1.27;;;10.80;39.40;;;;;;5014949;28;20490;-57
2024/01/03 12:34:35;;;;;;;3.57;1.30;;;10.80;44.00;;;;;;5015828;28;20962;-58
2024/01/03 12:37:02;;;;;;;2.80;1.13;;;10.80;44.40;;;;;;5017608;28;20540;-58
2024/01/03 12:39:34;;;;;;;5.23;1.30;;;10.70;37.00;;;;;;5013065;28;20486;-57
2024/01/03 12:42:04;;;;;;;1.73;1.00;;;10.60;99.90;;;;;;5012317;28;20725;-58
2024/01/03 12:44:31;;;;;;;3.20;1.30;;;10.30;99.90;;;;;;5012140;28;20452;-58
2024/01/03 12:46:59;;;;;;;3.50;1.40;;;10.00;99.90;;;;;;5013993;28;20984;-58
2024/01/03 12:49:26;;;;;;;3.50;1.20;;;9.80;99.90;;;;;;5014039;28;20474;-58
2024/01/03 12:51:53;;;;;;;2.70;2.13;;;9.70;99.90;;;;;;5021023;28;20478;-57
2024/01/03 12:54:20;;;;;;;2.90;1.50;;;9.60;99.90;;;;;;5015891;28;20756;-58
2024/01/03 12:56:47;;;;;;;4.07;1.60;;;9.60;99.90;;;;;;5015630;28;20549;-58
2024/01/03 12:59:15;;;;;;;2.60;1.87;;;9.60;99.90;;;;;;5013582;28;20463;-58